Garden Plain, Kansas
Current Conditions -  °F | °C
As of 5:53 PM on Friday 21 Nov 2014 (Local Time) from KICT Reporting Station
Moderate Fog Moderate Fog  
Wind Chill: 43°   Ceiling: 400
Heat Index: 45°   Visibility: 0.5mi
Dew Point: 45°   Wind: 5mph
Humidity: 100%   Direction: 130°SE
Pressure: 30.02"   Gusts: NA
Location:  37.66°N, 97.68°W
Report Text: KICT 212353Z 13004KT 1/2SM R01L/P6000FT FG BR OVC004 07/07 A3002 RMK AO2 DZE53 SLP173 P0000 60001 T00720072 10072 20044 58000
Loading
Personal Weather Stations






























Interactive Weather Map New forecast layout! Learn more

10-Day Weather Forecast

Advertisements
Track Severe Weather on mobile